sensor_id;sensor_type;location;lat;lon;timestamp;pressure;altitude;pressure_sealevel;temperature;humidity
67987;BME280;54767;53.800;15.956;2022-07-30T00:01:17;100659.67;;;16.40;60.08
67987;BME280;54767;53.800;15.956;2022-07-30T00:03:46;100654.80;;;16.36;59.88
67987;BME280;54767;53.800;15.956;2022-07-30T00:06:15;100653.48;;;16.30;59.83
67987;BME280;54767;53.800;15.956;2022-07-30T00:08:43;100653.91;;;16.23;59.77
67987;BME280;54767;53.800;15.956;2022-07-30T00:11:11;100652.75;;;16.18;59.81
67987;BME280;54767;53.800;15.956;2022-07-30T00:13:40;100653.16;;;16.15;59.99
67987;BME280;54767;53.800;15.956;2022-07-30T00:16:08;100651.39;;;16.15;60.20
67987;BME280;54767;53.800;15.956;2022-07-30T00:18:37;100644.50;;;16.15;60.32
67987;BME280;54767;53.800;15.956;2022-07-30T00:21:07;100642.22;;;16.14;60.55
67987;BME280;54767;53.800;15.956;2022-07-30T00:23:37;100647.17;;;16.13;60.55
67987;BME280;54767;53.800;15.956;2022-07-30T00:26:26;100641.39;;;16.11;60.82
67987;BME280;54767;53.800;15.956;2022-07-30T00:28:54;100643.00;;;16.09;60.63
67987;BME280;54767;53.800;15.956;2022-07-30T00:31:23;100643.02;;;16.07;60.85
67987;BME280;54767;53.800;15.956;2022-07-30T00:33:51;100637.77;;;16.04;61.03
67987;BME280;54767;53.800;15.956;2022-07-30T00:36:20;100633.57;;;16.02;61.03
67987;BME280;54767;53.800;15.956;2022-07-30T00:38:49;100630.05;;;16.00;60.93
67987;BME280;54767;53.800;15.956;2022-07-30T00:41:17;100630.06;;;16.00;60.89
67987;BME280;54767;53.800;15.956;2022-07-30T00:43:45;100626.55;;;15.98;60.85
67987;BME280;54767;53.800;15.956;2022-07-30T00:46:14;100627.48;;;15.96;60.96
67987;BME280;54767;53.800;15.956;2022-07-30T00:48:43;100625.55;;;15.94;61.05
67987;BME280;54767;53.800;15.956;2022-07-30T00:51:12;100618.16;;;15.93;61.09
67987;BME280;54767;53.800;15.956;2022-07-30T00:53:41;100613.79;;;15.90;61.23
67987;BME280;54767;53.800;15.956;2022-07-30T00:56:09;100598.82;;;15.88;61.53
67987;BME280;54767;53.800;15.956;2022-07-30T00:58:37;100599.55;;;15.86;61.51
67987;BME280;54767;53.800;15.956;2022-07-30T01:01:06;100593.08;;;15.82;61.48
67987;BME280;54767;53.800;15.956;2022-07-30T01:03:37;100592.91;;;15.80;61.64
67987;BME280;54767;53.800;15.956;2022-07-30T01:06:05;100592.05;;;15.80;61.81
67987;BME280;54767;53.800;15.956;2022-07-30T01:08:41;100582.68;;;15.80;61.87
67987;BME280;54767;53.800;15.956;2022-07-30T01:11:12;100575.60;;;15.81;62.08
67987;BME280;54767;53.800;15.956;2022-07-30T01:13:40;100575.06;;;15.81;62.21
67987;BME280;54767;53.800;15.956;2022-07-30T01:16:09;100576.48;;;15.81;62.26
67987;BME280;54767;53.800;15.956;2022-07-30T01:18:39;100573.51;;;15.80;62.29
67987;BME280;54767;53.800;15.956;2022-07-30T01:21:31;100575.15;;;15.76;62.47
67987;BME280;54767;53.800;15.956;2022-07-30T01:24:18;100572.88;;;15.75;62.55
67987;BME280;54767;53.800;15.956;2022-07-30T01:26:49;100580.30;;;15.73;62.73
67987;BME280;54767;53.800;15.956;2022-07-30T01:29:19;100573.06;;;15.73;62.84
67987;BME280;54767;53.800;15.956;2022-07-30T01:31:49;100567.77;;;15.74;62.92
67987;BME280;54767;53.800;15.956;2022-07-30T01:34:22;100568.84;;;15.73;62.98
67987;BME280;54767;53.800;15.956;2022-07-30T01:36:50;100566.19;;;15.73;62.94
67987;BME280;54767;53.800;15.956;2022-07-30T01:39:19;100566.94;;;15.70;63.04
67987;BME280;54767;53.800;15.956;2022-07-30T01:41:49;100569.41;;;15.70;63.13
67987;BME280;54767;53.800;15.956;2022-07-30T01:44:18;100568.89;;;15.68;63.06
67987;BME280;54767;53.800;15.956;2022-07-30T01:46:52;100568.02;;;15.66;63.19
67987;BME280;54767;53.800;15.956;2022-07-30T01:49:24;100569.45;;;15.64;63.18
67987;BME280;54767;53.800;15.956;2022-07-30T01:51:57;100564.86;;;15.65;63.35
67987;BME280;54767;53.800;15.956;2022-07-30T01:54:29;100563.96;;;15.65;63.47
67987;BME280;54767;53.800;15.956;2022-07-30T01:57:00;100562.56;;;15.64;63.43
67987;BME280;54767;53.800;15.956;2022-07-30T01:59:32;100565.58;;;15.64;63.46
67987;BME280;54767;53.800;15.956;2022-07-30T02:02:01;100567.52;;;15.63;63.51
67987;BME280;54767;53.800;15.956;2022-07-30T02:04:30;100570.55;;;15.62;63.39
67987;BME280;54767;53.800;15.956;2022-07-30T02:07:02;100572.52;;;15.59;63.41
67987;BME280;54767;53.800;15.956;2022-07-30T02:09:45;100570.10;;;15.55;63.36
67987;BME280;54767;53.800;15.956;2022-07-30T02:12:18;100567.65;;;15.53;63.46
67987;BME280;54767;53.800;15.956;2022-07-30T02:15:17;100567.13;;;15.52;63.49
67987;BME280;54767;53.800;15.956;2022-07-30T02:20:24;100569.83;;;15.49;63.58
67987;BME280;54767;53.800;15.956;2022-07-30T02:23:01;100570.23;;;15.46;63.48
67987;BME280;54767;53.800;15.956;2022-07-30T02:25:33;100569.08;;;15.39;63.65
67987;BME280;54767;53.800;15.956;2022-07-30T02:28:07;100568.30;;;15.30;63.74
67987;BME280;54767;53.800;15.956;2022-07-30T02:30:43;100563.44;;;15.24;63.81
67987;BME280;54767;53.800;15.956;2022-07-30T02:33:13;100565.95;;;15.20;63.98
67987;BME280;54767;53.800;15.956;2022-07-30T02:35:44;100571.42;;;15.19;63.91
67987;BME280;54767;53.800;15.956;2022-07-30T02:38:15;100571.23;;;15.21;63.94
67987;BME280;54767;53.800;15.956;2022-07-30T02:40:46;100571.55;;;15.23;64.02
67987;BME280;54767;53.800;15.956;2022-07-30T02:43:16;100569.63;;;15.23;63.87
67987;BME280;54767;53.800;15.956;2022-07-30T02:45:46;100573.85;;;15.23;63.82
67987;BME280;54767;53.800;15.956;2022-07-30T02:48:18;100570.89;;;15.21;63.91
67987;BME280;54767;53.800;15.956;2022-07-30T02:51:03;100566.48;;;15.19;63.81
67987;BME280;54767;53.800;15.956;2022-07-30T02:53:33;100567.02;;;15.18;63.76
67987;BME280;54767;53.800;15.956;2022-07-30T02:56:04;100569.19;;;15.15;63.81
67987;BME280;54767;53.800;15.956;2022-07-30T02:58:35;100568.88;;;15.10;63.57
67987;BME280;54767;53.800;15.956;2022-07-30T03:01:06;100562.41;;;15.07;63.77
67987;BME280;54767;53.800;15.956;2022-07-30T03:03:40;100562.96;;;15.04;63.70
67987;BME280;54767;53.800;15.956;2022-07-30T03:06:12;100558.79;;;14.99;63.66
67987;BME280;54767;53.800;15.956;2022-07-30T03:08:43;100559.91;;;14.92;63.52
67987;BME280;54767;53.800;15.956;2022-07-30T03:11:12;100558.39;;;14.87;63.74
67987;BME280;54767;53.800;15.956;2022-07-30T03:13:44;100558.82;;;14.80;63.85
67987;BME280;54767;53.800;15.956;2022-07-30T03:16:15;100555.52;;;14.75;64.17
67987;BME280;54767;53.800;15.956;2022-07-30T03:18:46;100559.06;;;14.73;64.39
67987;BME280;54767;53.800;15.956;2022-07-30T03:21:16;100556.60;;;14.73;64.38
67987;BME280;54767;53.800;15.956;2022-07-30T03:23:47;100560.27;;;14.75;64.49
67987;BME280;54767;53.800;15.956;2022-07-30T03:26:18;100557.10;;;14.75;64.49
67987;BME280;54767;53.800;15.956;2022-07-30T03:28:49;100559.04;;;14.74;64.61
67987;BME280;54767;53.800;15.956;2022-07-30T03:31:18;100558.69;;;14.74;64.62
67987;BME280;54767;53.800;15.956;2022-07-30T03:33:48;100561.00;;;14.73;64.89
67987;BME280;54767;53.800;15.956;2022-07-30T03:36:18;100560.88;;;14.68;64.98
67987;BME280;54767;53.800;15.956;2022-07-30T03:38:47;100562.15;;;14.62;65.22
67987;BME280;54767;53.800;15.956;2022-07-30T03:41:16;100559.37;;;14.59;65.43
67987;BME280;54767;53.800;15.956;2022-07-30T03:43:45;100563.08;;;14.58;65.73
67987;BME280;54767;53.800;15.956;2022-07-30T03:46:15;100564.81;;;14.60;65.95
67987;BME280;54767;53.800;15.956;2022-07-30T03:48:45;100565.69;;;14.60;66.24
67987;BME280;54767;53.800;15.956;2022-07-30T03:51:15;100563.05;;;14.60;66.59
67987;BME280;54767;53.800;15.956;2022-07-30T03:53:44;100561.63;;;14.61;67.08
67987;BME280;54767;53.800;15.956;2022-07-30T03:56:13;100563.92;;;14.62;67.76
67987;BME280;54767;53.800;15.956;2022-07-30T03:58:42;100561.94;;;14.66;67.81
67987;BME280;54767;53.800;15.956;2022-07-30T04:01:11;100561.35;;;14.72;67.76
67987;BME280;54767;53.800;15.956;2022-07-30T04:03:39;100561.27;;;14.79;67.83
67987;BME280;54767;53.800;15.956;2022-07-30T04:06:08;100568.24;;;14.87;67.72
67987;BME280;54767;53.800;15.956;2022-07-30T04:08:36;100570.30;;;14.94;67.26
67987;BME280;54767;53.800;15.956;2022-07-30T04:11:05;100565.46;;;15.01;67.33
67987;BME280;54767;53.800;15.956;2022-07-30T04:13:33;100561.52;;;15.06;67.45
67987;BME280;54767;53.800;15.956;2022-07-30T04:16:12;100556.17;;;15.11;67.58
67987;BME280;54767;53.800;15.956;2022-07-30T04:19:06;100553.30;;;15.17;67.53
67987;BME280;54767;53.800;15.956;2022-07-30T04:21:37;100551.96;;;15.25;67.36
67987;BME280;54767;53.800;15.956;2022-07-30T04:24:08;100549.92;;;15.32;67.35
67987;BME280;54767;53.800;15.956;2022-07-30T04:26:38;100551.06;;;15.40;67.37
67987;BME280;54767;53.800;15.956;2022-07-30T04:29:08;100547.29;;;15.46;67.48
67987;BME280;54767;53.800;15.956;2022-07-30T04:31:41;100546.67;;;15.53;67.64
67987;BME280;54767;53.800;15.956;2022-07-30T04:34:13;100543.59;;;15.58;67.73
67987;BME280;54767;53.800;15.956;2022-07-30T04:36:42;100542.64;;;15.64;67.61
67987;BME280;54767;53.800;15.956;2022-07-30T04:39:12;100541.73;;;15.67;67.58
67987;BME280;54767;53.800;15.956;2022-07-30T04:41:46;100546.95;;;15.74;67.58
67987;BME280;54767;53.800;15.956;2022-07-30T04:44:18;100551.23;;;15.82;67.56
67987;BME280;54767;53.800;15.956;2022-07-30T04:46:46;100550.05;;;15.90;67.36
67987;BME280;54767;53.800;15.956;2022-07-30T04:49:16;100548.20;;;15.96;67.67
67987;BME280;54767;53.800;15.956;2022-07-30T04:51:46;100538.87;;;16.06;67.73
67987;BME280;54767;53.800;15.956;2022-07-30T04:54:17;100541.53;;;16.17;67.50
67987;BME280;54767;53.800;15.956;2022-07-30T04:56:48;100544.39;;;16.25;67.18
67987;BME280;54767;53.800;15.956;2022-07-30T04:59:23;100546.32;;;16.37;67.41
67987;BME280;54767;53.800;15.956;2022-07-30T05:01:52;100544.77;;;16.55;67.34
67987;BME280;54767;53.800;15.956;2022-07-30T05:04:24;100544.89;;;16.68;66.85
67987;BME280;54767;53.800;15.956;2022-07-30T05:06:53;100546.95;;;16.83;66.51
67987;BME280;54767;53.800;15.956;2022-07-30T05:09:23;100546.79;;;16.92;65.85
67987;BME280;54767;53.800;15.956;2022-07-30T05:11:53;100544.55;;;16.98;65.13
67987;BME280;54767;53.800;15.956;2022-07-30T05:14:23;100535.54;;;16.98;64.47
67987;BME280;54767;53.800;15.956;2022-07-30T05:16:53;100534.31;;;16.97;64.56
67987;BME280;54767;53.800;15.956;2022-07-30T05:19:22;100533.02;;;16.99;64.57
67987;BME280;54767;53.800;15.956;2022-07-30T05:21:51;100539.55;;;17.00;64.39
67987;BME280;54767;53.800;15.956;2022-07-30T05:24:19;100537.23;;;17.01;64.26
67987;BME280;54767;53.800;15.956;2022-07-30T05:26:48;100538.27;;;17.02;64.25
67987;BME280;54767;53.800;15.956;2022-07-30T05:29:16;100538.20;;;17.06;64.11
67987;BME280;54767;53.800;15.956;2022-07-30T05:31:47;100538.83;;;17.09;63.93
67987;BME280;54767;53.800;15.956;2022-07-30T05:34:15;100537.88;;;17.13;63.81
67987;BME280;54767;53.800;15.956;2022-07-30T05:36:44;100542.75;;;17.17;63.92
67987;BME280;54767;53.800;15.956;2022-07-30T05:39:13;100543.59;;;17.19;63.47
67987;BME280;54767;53.800;15.956;2022-07-30T05:41:41;100550.27;;;17.22;63.71
67987;BME280;54767;53.800;15.956;2022-07-30T05:44:10;100548.73;;;17.27;63.52
67987;BME280;54767;53.800;15.956;2022-07-30T05:46:38;100546.99;;;17.26;63.42
67987;BME280;54767;53.800;15.956;2022-07-30T05:49:07;100549.77;;;17.28;63.51
67987;BME280;54767;53.800;15.956;2022-07-30T05:51:36;100548.67;;;17.30;63.31
67987;BME280;54767;53.800;15.956;2022-07-30T05:54:04;100548.27;;;17.32;63.15
67987;BME280;54767;53.800;15.956;2022-07-30T05:56:33;100549.48;;;17.33;62.98
67987;BME280;54767;53.800;15.956;2022-07-30T05:59:03;100548.63;;;17.33;63.00
67987;BME280;54767;53.800;15.956;2022-07-30T06:01:32;100547.88;;;17.34;62.94
67987;BME280;54767;53.800;15.956;2022-07-30T06:04:00;100547.14;;;17.35;63.08
67987;BME280;54767;53.800;15.956;2022-07-30T06:06:29;100546.91;;;17.38;63.16
67987;BME280;54767;53.800;15.956;2022-07-30T06:08:57;100547.55;;;17.42;63.27
67987;BME280;54767;53.800;15.956;2022-07-30T06:11:26;100546.77;;;17.45;63.11
67987;BME280;54767;53.800;15.956;2022-07-30T06:13:54;100546.02;;;17.47;63.07
67987;BME280;54767;53.800;15.956;2022-07-30T06:16:23;100548.81;;;17.49;63.01
67987;BME280;54767;53.800;15.956;2022-07-30T06:18:51;100551.20;;;17.53;62.94
67987;BME280;54767;53.800;15.956;2022-07-30T06:21:20;100550.07;;;17.56;62.79
67987;BME280;54767;53.800;15.956;2022-07-30T06:23:48;100550.73;;;17.58;62.75
67987;BME280;54767;53.800;15.956;2022-07-30T06:26:17;100546.59;;;17.60;62.77
67987;BME280;54767;53.800;15.956;2022-07-30T06:28:45;100550.05;;;17.65;62.89
67987;BME280;54767;53.800;15.956;2022-07-30T06:31:14;100551.90;;;17.69;62.77
67987;BME280;54767;53.800;15.956;2022-07-30T06:33:42;100551.38;;;17.69;62.59
67987;BME280;54767;53.800;15.956;2022-07-30T06:36:11;100554.18;;;17.71;62.73
67987;BME280;54767;53.800;15.956;2022-07-30T06:38:41;100551.61;;;17.75;62.74
67987;BME280;54767;53.800;15.956;2022-07-30T06:41:09;100552.61;;;17.78;62.75
67987;BME280;54767;53.800;15.956;2022-07-30T06:43:38;100551.67;;;17.82;62.66
67987;BME280;54767;53.800;15.956;2022-07-30T06:46:07;100553.30;;;17.88;62.77
67987;BME280;54767;53.800;15.956;2022-07-30T06:48:35;100553.15;;;17.94;62.66
67987;BME280;54767;53.800;15.956;2022-07-30T06:51:04;100554.06;;;18.00;62.52
67987;BME280;54767;53.800;15.956;2022-07-30T06:53:33;100555.73;;;18.04;62.17
67987;BME280;54767;53.800;15.956;2022-07-30T06:56:10;100554.36;;;18.10;62.14
67987;BME280;54767;53.800;15.956;2022-07-30T06:58:39;100555.48;;;18.15;62.23
67987;BME280;54767;53.800;15.956;2022-07-30T07:01:07;100555.84;;;18.22;62.29
67987;BME280;54767;53.800;15.956;2022-07-30T07:03:38;100554.30;;;18.27;61.95
67987;BME280;54767;53.800;15.956;2022-07-30T07:06:07;100553.22;;;18.28;61.49
67987;BME280;54767;53.800;15.956;2022-07-30T07:08:36;100553.67;;;18.31;61.95
67987;BME280;54767;53.800;15.956;2022-07-30T07:11:05;100552.28;;;18.37;61.78
67987;BME280;54767;53.800;15.956;2022-07-30T07:13:34;100547.87;;;18.44;61.88
67987;BME280;54767;53.800;15.956;2022-07-30T07:34:08;100542.45;;;19.02;60.71
67987;BME280;54767;53.800;15.956;2022-07-30T07:38:14;100539.61;;;19.14;59.56
67987;BME280;54767;53.800;15.956;2022-07-30T07:41:17;100542.73;;;19.23;59.33
67987;BME280;54767;53.800;15.956;2022-07-30T07:43:47;100543.06;;;19.30;59.20
67987;BME280;54767;53.800;15.956;2022-07-30T07:46:19;100538.95;;;19.37;58.69
67987;BME280;54767;53.800;15.956;2022-07-30T07:49:01;100537.04;;;19.42;58.00
67987;BME280;54767;53.800;15.956;2022-07-30T07:51:33;100539.38;;;19.47;58.31
67987;BME280;54767;53.800;15.956;2022-07-30T07:59:39;100531.18;;;19.72;58.22
67987;BME280;54767;53.800;15.956;2022-07-30T08:02:08;100530.46;;;19.84;58.22
67987;BME280;54767;53.800;15.956;2022-07-30T08:04:45;100528.55;;;19.94;58.10
67987;BME280;54767;53.800;15.956;2022-07-30T08:07:30;100527.47;;;20.05;57.65
67987;BME280;54767;53.800;15.956;2022-07-30T08:10:26;100527.41;;;20.18;57.57
67987;BME280;54767;53.800;15.956;2022-07-30T08:13:00;100526.08;;;20.31;57.40
67987;BME280;54767;53.800;15.956;2022-07-30T08:15:31;100522.84;;;20.43;57.32
67987;BME280;54767;53.800;15.956;2022-07-30T08:17:59;100523.19;;;20.54;56.44
67987;BME280;54767;53.800;15.956;2022-07-30T08:20:27;100518.27;;;20.63;54.74
67987;BME280;54767;53.800;15.956;2022-07-30T08:23:00;100515.27;;;20.72;55.01
67987;BME280;54767;53.800;15.956;2022-07-30T08:25:29;100515.41;;;20.83;54.51
67987;BME280;54767;53.800;15.956;2022-07-30T08:27:58;100511.59;;;20.90;53.47
67987;BME280;54767;53.800;15.956;2022-07-30T08:30:29;100513.13;;;20.97;54.26
67987;BME280;54767;53.800;15.956;2022-07-30T08:32:58;100515.33;;;21.05;54.31
67987;BME280;54767;53.800;15.956;2022-07-30T08:35:26;100518.55;;;21.14;54.14
67987;BME280;54767;53.800;15.956;2022-07-30T08:37:55;100514.76;;;21.20;54.03
67987;BME280;54767;53.800;15.956;2022-07-30T08:40:25;100519.71;;;21.26;53.70
67987;BME280;54767;53.800;15.956;2022-07-30T08:42:54;100515.66;;;21.30;53.43
67987;BME280;54767;53.800;15.956;2022-07-30T08:45:22;100514.50;;;21.32;52.86
67987;BME280;54767;53.800;15.956;2022-07-30T08:48:09;100515.33;;;21.33;52.85
67987;BME280;54767;53.800;15.956;2022-07-30T08:50:44;100516.52;;;21.35;52.71
67987;BME280;54767;53.800;15.956;2022-07-30T08:53:14;100511.48;;;21.37;53.07
67987;BME280;54767;53.800;15.956;2022-07-30T08:55:48;100512.42;;;21.41;53.08
67987;BME280;54767;53.800;15.956;2022-07-30T08:58:28;100514.80;;;21.43;53.04
67987;BME280;54767;53.800;15.956;2022-07-30T09:00:57;100514.17;;;21.46;53.04
67987;BME280;54767;53.800;15.956;2022-07-30T09:03:25;100514.17;;;21.51;53.07
67987;BME280;54767;53.800;15.956;2022-07-30T09:05:56;100512.60;;;21.54;52.07
67987;BME280;54767;53.800;15.956;2022-07-30T09:08:30;100513.73;;;21.57;51.96
67987;BME280;54767;53.800;15.956;2022-07-30T09:11:28;100514.84;;;21.61;51.94
67987;BME280;54767;53.800;15.956;2022-07-30T09:14:08;100510.04;;;21.61;50.25
67987;BME280;54767;53.800;15.956;2022-07-30T09:16:40;100511.16;;;21.59;51.51
67987;BME280;54767;53.800;15.956;2022-07-30T09:19:19;100509.94;;;21.63;51.17
67987;BME280;54767;53.800;15.956;2022-07-30T09:21:59;100507.90;;;21.65;49.87
67987;BME280;54767;53.800;15.956;2022-07-30T09:25:09;100507.27;;;21.63;48.81
67987;BME280;54767;53.800;15.956;2022-07-30T09:28:04;100510.10;;;21.64;49.61
67987;BME280;54767;53.800;15.956;2022-07-30T09:30:52;100510.08;;;21.69;49.51
67987;BME280;54767;53.800;15.956;2022-07-30T09:35:59;100507.95;;;21.69;48.51
67987;BME280;54767;53.800;15.956;2022-07-30T09:38:37;100499.70;;;21.75;49.33
67987;BME280;54767;53.800;15.956;2022-07-30T09:41:08;100500.86;;;21.81;49.61
67987;BME280;54767;53.800;15.956;2022-07-30T09:43:56;100496.66;;;21.87;49.71
67987;BME280;54767;53.800;15.956;2022-07-30T09:46:48;100497.39;;;21.97;49.62
67987;BME280;54767;53.800;15.956;2022-07-30T09:49:21;100496.67;;;22.01;47.66
67987;BME280;54767;53.800;15.956;2022-07-30T09:51:51;100496.94;;;21.99;48.09
67987;BME280;54767;53.800;15.956;2022-07-30T09:54:24;100498.20;;;22.03;48.91
67987;BME280;54767;53.800;15.956;2022-07-30T09:57:19;100496.23;;;22.11;49.36
67987;BME280;54767;53.800;15.956;2022-07-30T09:59:56;100498.30;;;22.18;49.16
67987;BME280;54767;53.800;15.956;2022-07-30T10:02:30;100497.80;;;22.21;48.61
67987;BME280;54767;53.800;15.956;2022-07-30T10:05:12;100500.35;;;22.25;48.71
67987;BME280;54767;53.800;15.956;2022-07-30T10:07:52;100501.00;;;22.26;48.34
67987;BME280;54767;53.800;15.956;2022-07-30T10:10:47;100496.59;;;22.29;49.22
67987;BME280;54767;53.800;15.956;2022-07-30T10:13:18;100495.25;;;22.31;47.40
67987;BME280;54767;53.800;15.956;2022-07-30T10:15:59;100495.40;;;22.28;46.97
67987;BME280;54767;53.800;15.956;2022-07-30T10:18:29;100495.39;;;22.28;47.50
67987;BME280;54767;53.800;15.956;2022-07-30T10:21:00;100495.48;;;22.30;47.82
67987;BME280;54767;53.800;15.956;2022-07-30T10:23:33;100494.44;;;22.34;48.31
67987;BME280;54767;53.800;15.956;2022-07-30T10:26:02;100491.52;;;22.40;48.74
67987;BME280;54767;53.800;15.956;2022-07-30T10:28:35;100494.66;;;22.45;47.53
67987;BME280;54767;53.800;15.956;2022-07-30T10:31:07;100496.42;;;22.46;47.27
67987;BME280;54767;53.800;15.956;2022-07-30T10:33:58;100492.59;;;22.48;47.37
67987;BME280;54767;53.800;15.956;2022-07-30T10:36:27;100492.63;;;22.51;48.10
67987;BME280;54767;53.800;15.956;2022-07-30T10:38:56;100493.77;;;22.57;48.08
67987;BME280;54767;53.800;15.956;2022-07-30T10:41:39;100489.45;;;22.63;47.52
67987;BME280;54767;53.800;15.956;2022-07-30T10:44:45;100484.09;;;22.67;46.61
67987;BME280;54767;53.800;15.956;2022-07-30T10:47:18;100484.92;;;22.68;46.62
67987;BME280;54767;53.800;15.956;2022-07-30T10:50:10;100480.34;;;22.71;46.77
67987;BME280;54767;53.800;15.956;2022-07-30T10:58:08;100485.62;;;22.61;43.36
67987;BME280;54767;53.800;15.956;2022-07-30T11:03:17;100485.69;;;22.54;44.59
67987;BME280;54767;53.800;15.956;2022-07-30T11:05:50;100483.77;;;22.58;45.20
67987;BME280;54767;53.800;15.956;2022-07-30T11:09:36;100487.62;;;22.64;45.47
67987;BME280;54767;53.800;15.956;2022-07-30T11:12:09;100479.08;;;22.67;45.11
67987;BME280;54767;53.800;15.956;2022-07-30T11:17:18;100486.24;;;22.75;44.72
67987;BME280;54767;53.800;15.956;2022-07-30T11:22:40;100480.30;;;22.80;45.09
67987;BME280;54767;53.800;15.956;2022-07-30T11:27:49;100479.95;;;22.84;43.24
67987;BME280;54767;53.800;15.956;2022-07-30T11:30:31;100476.48;;;22.85;43.80
67987;BME280;54767;53.800;15.956;2022-07-30T11:35:32;100478.75;;;22.86;42.21
67987;BME280;54767;53.800;15.956;2022-07-30T11:38:13;100470.80;;;22.85;42.87
67987;BME280;54767;53.800;15.956;2022-07-30T11:43:26;100474.16;;;22.86;43.51
67987;BME280;54767;53.800;15.956;2022-07-30T11:46:11;100473.83;;;22.89;43.23
67987;BME280;54767;53.800;15.956;2022-07-30T11:48:55;100473.20;;;22.91;41.96
67987;BME280;54767;53.800;15.956;2022-07-30T11:51:24;100477.70;;;22.90;40.56
67987;BME280;54767;53.800;15.956;2022-07-30T11:54:04;100474.13;;;22.90;40.67
67987;BME280;54767;53.800;15.956;2022-07-30T11:56:33;100473.34;;;22.92;40.81
67987;BME280;54767;53.800;15.956;2022-07-30T11:59:03;100479.44;;;22.95;41.33
67987;BME280;54767;53.800;15.956;2022-07-30T12:01:33;100472.39;;;23.01;41.13
67987;BME280;54767;53.800;15.956;2022-07-30T12:04:04;100470.80;;;23.05;40.48
67987;BME280;54767;53.800;15.956;2022-07-30T12:06:32;100472.59;;;23.09;40.57
67987;BME280;54767;53.800;15.956;2022-07-30T12:09:03;100464.45;;;23.11;40.59
67987;BME280;54767;53.800;15.956;2022-07-30T12:11:33;100463.42;;;23.14;40.83
67987;BME280;54767;53.800;15.956;2022-07-30T12:14:03;100460.89;;;23.18;40.96
67987;BME280;54767;53.800;15.956;2022-07-30T12:16:32;100457.25;;;23.23;40.30
67987;BME280;54767;53.800;15.956;2022-07-30T12:19:05;100457.64;;;23.27;40.05
67987;BME280;54767;53.800;15.956;2022-07-30T12:21:36;100458.36;;;23.31;41.58
67987;BME280;54767;53.800;15.956;2022-07-30T12:24:05;100454.30;;;23.34;41.61
67987;BME280;54767;53.800;15.956;2022-07-30T12:26:35;100460.38;;;23.37;41.81
67987;BME280;54767;53.800;15.956;2022-07-30T12:29:05;100468.61;;;23.40;41.94
67987;BME280;54767;53.800;15.956;2022-07-30T12:31:38;100465.17;;;23.45;42.03
67987;BME280;54767;53.800;15.956;2022-07-30T12:34:23;100462.45;;;23.46;40.74
67987;BME280;54767;53.800;15.956;2022-07-30T12:36:52;100460.62;;;23.43;40.51
67987;BME280;54767;53.800;15.956;2022-07-30T12:39:23;100461.54;;;23.42;40.84
67987;BME280;54767;53.800;15.956;2022-07-30T12:41:53;100453.23;;;23.44;41.65
67987;BME280;54767;53.800;15.956;2022-07-30T12:44:41;100454.43;;;23.45;41.60
67987;BME280;54767;53.800;15.956;2022-07-30T12:47:27;100461.73;;;23.46;41.93
67987;BME280;54767;53.800;15.956;2022-07-30T12:49:59;100456.17;;;23.46;41.94
67987;BME280;54767;53.800;15.956;2022-07-30T12:52:31;100450.95;;;23.48;42.36
67987;BME280;54767;53.800;15.956;2022-07-30T12:55:07;100450.13;;;23.50;42.14
67987;BME280;54767;53.800;15.956;2022-07-30T12:58:02;100447.66;;;23.49;42.23
67987;BME280;54767;53.800;15.956;2022-07-30T13:00:46;100444.83;;;23.52;42.34
67987;BME280;54767;53.800;15.956;2022-07-30T13:03:23;100438.66;;;23.54;42.46
67987;BME280;54767;53.800;15.956;2022-07-30T13:05:54;100435.38;;;23.56;42.87
67987;BME280;54767;53.800;15.956;2022-07-30T13:08:45;100436.46;;;23.55;42.76
67987;BME280;54767;53.800;15.956;2022-07-30T13:11:15;100437.23;;;23.58;42.54
67987;BME280;54767;53.800;15.956;2022-07-30T13:13:44;100436.38;;;23.57;41.91
67987;BME280;54767;53.800;15.956;2022-07-30T13:16:13;100433.98;;;23.58;42.25
67987;BME280;54767;53.800;15.956;2022-07-30T13:18:42;100430.63;;;23.61;42.15
67987;BME280;54767;53.800;15.956;2022-07-30T13:21:12;100430.11;;;23.65;41.47
67987;BME280;54767;53.800;15.956;2022-07-30T13:23:40;100429.48;;;23.66;41.03
67987;BME280;54767;53.800;15.956;2022-07-30T13:26:09;100428.14;;;23.68;41.52
67987;BME280;54767;53.800;15.956;2022-07-30T13:28:38;100424.41;;;23.72;41.70
67987;BME280;54767;53.800;15.956;2022-07-30T13:31:06;100422.04;;;23.77;41.22
67987;BME280;54767;53.800;15.956;2022-07-30T13:33:35;100416.95;;;23.79;41.64
67987;BME280;54767;53.800;15.956;2022-07-30T13:36:05;100416.63;;;23.81;41.51
67987;BME280;54767;53.800;15.956;2022-07-30T13:38:34;100413.77;;;23.84;42.15
67987;BME280;54767;53.800;15.956;2022-07-30T13:41:03;100406.52;;;23.90;42.02
67987;BME280;54767;53.800;15.956;2022-07-30T13:43:32;100408.86;;;23.94;42.02
67987;BME280;54767;53.800;15.956;2022-07-30T13:46:02;100409.02;;;23.94;41.74
67987;BME280;54767;53.800;15.956;2022-07-30T13:48:32;100407.78;;;23.94;42.02
67987;BME280;54767;53.800;15.956;2022-07-30T13:51:01;100400.64;;;23.97;42.03
67987;BME280;54767;53.800;15.956;2022-07-30T13:53:30;100403.27;;;23.98;42.07
67987;BME280;54767;53.800;15.956;2022-07-30T13:55:58;100397.88;;;24.02;41.62
67987;BME280;54767;53.800;15.956;2022-07-30T13:58:27;100400.13;;;24.00;40.31
67987;BME280;54767;53.800;15.956;2022-07-30T14:01:02;100400.77;;;23.98;41.06